sensor_id;sensor_type;location;lat;lon;timestamp;temperature;humidity
17421;DHT22;8828;48.800;9.540;2022-12-24T00:01:32;12.30;99.90
17421;DHT22;8828;48.800;9.540;2022-12-24T00:04:00;12.30;99.90
17421;DHT22;8828;48.800;9.540;2022-12-24T00:06:28;12.30;99.90
17421;DHT22;8828;48.800;9.540;2022-12-24T00:08:55;12.30;99.90
17421;DHT22;8828;48.800;9.540;2022-12-24T00:11:23;12.30;99.90
17421;DHT22;8828;48.800;9.540;2022-12-24T00:13:53;12.30;99.90
17421;DHT22;8828;48.800;9.540;2022-12-24T00:16:21;12.30;99.90
17421;DHT22;8828;48.800;9.540;2022-12-24T00:18:48;12.30;99.90
17421;DHT22;8828;48.800;9.540;2022-12-24T00:21:16;12.30;99.90
17421;DHT22;8828;48.800;9.540;2022-12-24T00:23:44;12.30;99.90
17421;DHT22;8828;48.800;9.540;2022-12-24T00:26:12;12.30;99.90
17421;DHT22;8828;48.800;9.540;2022-12-24T00:28:41;12.30;99.90
17421;DHT22;8828;48.800;9.540;2022-12-24T00:31:12;12.30;99.90
17421;DHT22;8828;48.800;9.540;2022-12-24T00:33:40;12.30;99.90
17421;DHT22;8828;48.800;9.540;2022-12-24T00:36:08;12.30;99.90
17421;DHT22;8828;48.800;9.540;2022-12-24T00:38:37;12.30;99.90
17421;DHT22;8828;48.800;9.540;2022-12-24T00:41:06;12.40;99.90
17421;DHT22;8828;48.800;9.540;2022-12-24T00:43:51;12.40;99.90
17421;DHT22;8828;48.800;9.540;2022-12-24T00:46:21;12.40;99.90
17421;DHT22;8828;48.800;9.540;2022-12-24T00:48:50;12.40;99.90
17421;DHT22;8828;48.800;9.540;2022-12-24T00:51:18;12.40;99.90
17421;DHT22;8828;48.800;9.540;2022-12-24T00:53:47;12.30;99.90
17421;DHT22;8828;48.800;9.540;2022-12-24T00:56:16;12.40;99.90
17421;DHT22;8828;48.800;9.540;2022-12-24T00:58:44;12.40;99.90
17421;DHT22;8828;48.800;9.540;2022-12-24T01:01:13;12.30;99.90
17421;DHT22;8828;48.800;9.540;2022-12-24T01:03:42;12.30;99.90
17421;DHT22;8828;48.800;9.540;2022-12-24T01:06:13;12.30;99.90
17421;DHT22;8828;48.800;9.540;2022-12-24T01:08:40;12.30;99.90
17421;DHT22;8828;48.800;9.540;2022-12-24T01:11:09;12.30;99.90
17421;DHT22;8828;48.800;9.540;2022-12-24T01:13:38;12.30;99.90
17421;DHT22;8828;48.800;9.540;2022-12-24T01:16:13;12.30;99.90
17421;DHT22;8828;48.800;9.540;2022-12-24T01:18:43;12.30;99.90
17421;DHT22;8828;48.800;9.540;2022-12-24T01:21:11;12.30;99.90
17421;DHT22;8828;48.800;9.540;2022-12-24T01:23:39;12.30;99.90
17421;DHT22;8828;48.800;9.540;2022-12-24T01:26:08;12.30;99.90
17421;DHT22;8828;48.800;9.540;2022-12-24T01:28:37;12.30;99.90
17421;DHT22;8828;48.800;9.540;2022-12-24T01:31:10;12.30;99.90
17421;DHT22;8828;48.800;9.540;2022-12-24T01:33:38;12.30;99.90
17421;DHT22;8828;48.800;9.540;2022-12-24T01:36:09;12.30;99.90
17421;DHT22;8828;48.800;9.540;2022-12-24T01:38:37;12.30;99.90
17421;DHT22;8828;48.800;9.540;2022-12-24T01:41:05;12.30;99.90
17421;DHT22;8828;48.800;9.540;2022-12-24T01:43:51;12.30;99.90
17421;DHT22;8828;48.800;9.540;2022-12-24T01:46:20;12.30;99.90
17421;DHT22;8828;48.800;9.540;2022-12-24T01:48:52;12.30;99.90
17421;DHT22;8828;48.800;9.540;2022-12-24T01:51:26;12.30;99.90
17421;DHT22;8828;48.800;9.540;2022-12-24T01:53:59;12.30;99.90
17421;DHT22;8828;48.800;9.540;2022-12-24T01:56:30;12.30;99.90
17421;DHT22;8828;48.800;9.540;2022-12-24T01:59:02;12.20;99.90
17421;DHT22;8828;48.800;9.540;2022-12-24T02:01:31;12.20;99.90
17421;DHT22;8828;48.800;9.540;2022-12-24T02:04:02;12.20;99.90
17421;DHT22;8828;48.800;9.540;2022-12-24T02:06:32;12.20;99.90
17421;DHT22;8828;48.800;9.540;2022-12-24T02:09:01;12.10;99.90
17421;DHT22;8828;48.800;9.540;2022-12-24T02:11:29;12.10;99.90
17421;DHT22;8828;48.800;9.540;2022-12-24T02:13:59;12.10;99.90
17421;DHT22;8828;48.800;9.540;2022-12-24T02:16:36;12.10;99.90
17421;DHT22;8828;48.800;9.540;2022-12-24T02:19:23;12.00;99.90
17421;DHT22;8828;48.800;9.540;2022-12-24T02:21:57;11.90;99.90
17421;DHT22;8828;48.800;9.540;2022-12-24T02:25:00;11.90;99.90
17421;DHT22;8828;48.800;9.540;2022-12-24T02:27:36;11.90;99.90
17421;DHT22;8828;48.800;9.540;2022-12-24T02:30:11;11.90;99.90
17421;DHT22;8828;48.800;9.540;2022-12-24T02:33:03;11.80;99.90
17421;DHT22;8828;48.800;9.540;2022-12-24T02:35:37;11.80;99.90
17421;DHT22;8828;48.800;9.540;2022-12-24T02:38:12;11.80;99.90
17421;DHT22;8828;48.800;9.540;2022-12-24T02:40:45;11.70;99.90
17421;DHT22;8828;48.800;9.540;2022-12-24T02:43:17;11.70;99.90
17421;DHT22;8828;48.800;9.540;2022-12-24T02:45:54;11.70;99.90
17421;DHT22;8828;48.800;9.540;2022-12-24T02:48:26;11.70;99.90
17421;DHT22;8828;48.800;9.540;2022-12-24T02:50:57;11.70;99.90
17421;DHT22;8828;48.800;9.540;2022-12-24T02:53:25;11.70;99.90
17421;DHT22;8828;48.800;9.540;2022-12-24T02:58:58;11.60;99.90
17421;DHT22;8828;48.800;9.540;2022-12-24T03:01:40;11.60;99.90
17421;DHT22;8828;48.800;9.540;2022-12-24T03:04:18;11.60;99.90
17421;DHT22;8828;48.800;9.540;2022-12-24T03:07:12;11.60;99.90
17421;DHT22;8828;48.800;9.540;2022-12-24T03:09:52;11.60;99.90
17421;DHT22;8828;48.800;9.540;2022-12-24T03:12:27;11.60;99.90
17421;DHT22;8828;48.800;9.540;2022-12-24T03:14:57;11.50;99.90
17421;DHT22;8828;48.800;9.540;2022-12-24T03:17:27;11.50;99.90
17421;DHT22;8828;48.800;9.540;2022-12-24T03:19:55;11.50;99.90
17421;DHT22;8828;48.800;9.540;2022-12-24T03:22:24;11.50;99.90
17421;DHT22;8828;48.800;9.540;2022-12-24T03:24:54;11.40;99.90
17421;DHT22;8828;48.800;9.540;2022-12-24T03:27:25;11.40;99.90
17421;DHT22;8828;48.800;9.540;2022-12-24T03:29:54;11.40;99.90
17421;DHT22;8828;48.800;9.540;2022-12-24T03:32:23;11.40;99.90
17421;DHT22;8828;48.800;9.540;2022-12-24T03:34:52;11.40;99.90
17421;DHT22;8828;48.800;9.540;2022-12-24T03:37:20;11.40;99.90
17421;DHT22;8828;48.800;9.540;2022-12-24T03:39:48;11.40;99.90
17421;DHT22;8828;48.800;9.540;2022-12-24T03:42:16;11.40;99.90
17421;DHT22;8828;48.800;9.540;2022-12-24T03:44:44;11.40;99.90
17421;DHT22;8828;48.800;9.540;2022-12-24T03:47:12;11.30;99.90
17421;DHT22;8828;48.800;9.540;2022-12-24T03:49:40;11.40;99.90
17421;DHT22;8828;48.800;9.540;2022-12-24T03:52:09;11.30;99.90
17421;DHT22;8828;48.800;9.540;2022-12-24T03:54:37;11.30;99.90
17421;DHT22;8828;48.800;9.540;2022-12-24T03:57:05;11.40;99.90
17421;DHT22;8828;48.800;9.540;2022-12-24T03:59:33;11.30;99.90
17421;DHT22;8828;48.800;9.540;2022-12-24T04:02:01;11.30;99.90
17421;DHT22;8828;48.800;9.540;2022-12-24T04:04:29;11.30;99.90
17421;DHT22;8828;48.800;9.540;2022-12-24T04:06:59;11.30;99.90
17421;DHT22;8828;48.800;9.540;2022-12-24T04:09:28;11.30;99.90
17421;DHT22;8828;48.800;9.540;2022-12-24T04:11:56;11.30;99.90
17421;DHT22;8828;48.800;9.540;2022-12-24T04:14:24;11.30;99.90
17421;DHT22;8828;48.800;9.540;2022-12-24T04:16:52;11.30;99.90
17421;DHT22;8828;48.800;9.540;2022-12-24T04:19:20;11.30;99.90
17421;DHT22;8828;48.800;9.540;2022-12-24T04:21:48;11.30;99.90
17421;DHT22;8828;48.800;9.540;2022-12-24T04:24:16;11.30;99.90
17421;DHT22;8828;48.800;9.540;2022-12-24T04:26:45;11.30;99.90
17421;DHT22;8828;48.800;9.540;2022-12-24T04:29:13;11.30;99.90
17421;DHT22;8828;48.800;9.540;2022-12-24T04:31:41;11.20;99.90
17421;DHT22;8828;48.800;9.540;2022-12-24T04:34:09;11.30;99.90
17421;DHT22;8828;48.800;9.540;2022-12-24T04:36:37;11.20;99.90
17421;DHT22;8828;48.800;9.540;2022-12-24T04:39:05;11.30;99.90
17421;DHT22;8828;48.800;9.540;2022-12-24T04:41:33;11.30;99.90
17421;DHT22;8828;48.800;9.540;2022-12-24T04:44:02;11.30;99.90
17421;DHT22;8828;48.800;9.540;2022-12-24T04:46:30;11.30;99.90
17421;DHT22;8828;48.800;9.540;2022-12-24T04:48:58;11.20;99.90
17421;DHT22;8828;48.800;9.540;2022-12-24T04:51:27;11.20;99.90
17421;DHT22;8828;48.800;9.540;2022-12-24T04:53:56;11.20;99.90
17421;DHT22;8828;48.800;9.540;2022-12-24T04:56:26;11.20;99.90
17421;DHT22;8828;48.800;9.540;2022-12-24T04:58:54;11.20;99.90
17421;DHT22;8828;48.800;9.540;2022-12-24T05:01:25;11.20;99.90
17421;DHT22;8828;48.800;9.540;2022-12-24T05:03:54;11.20;99.90
17421;DHT22;8828;48.800;9.540;2022-12-24T05:06:25;11.20;99.90
17421;DHT22;8828;48.800;9.540;2022-12-24T05:08:54;11.20;99.90
17421;DHT22;8828;48.800;9.540;2022-12-24T05:11:23;11.10;99.90
17421;DHT22;8828;48.800;9.540;2022-12-24T05:13:51;11.10;99.90
17421;DHT22;8828;48.800;9.540;2022-12-24T05:16:21;11.10;99.90
17421;DHT22;8828;48.800;9.540;2022-12-24T05:18:50;11.00;99.90
17421;DHT22;8828;48.800;9.540;2022-12-24T05:21:20;11.00;99.90
17421;DHT22;8828;48.800;9.540;2022-12-24T05:23:48;11.00;99.90
17421;DHT22;8828;48.800;9.540;2022-12-24T05:26:36;11.00;99.90
17421;DHT22;8828;48.800;9.540;2022-12-24T05:29:07;11.10;99.90
17421;DHT22;8828;48.800;9.540;2022-12-24T05:31:35;11.00;99.90
17421;DHT22;8828;48.800;9.540;2022-12-24T05:34:06;11.00;99.90
17421;DHT22;8828;48.800;9.540;2022-12-24T05:36:34;11.00;99.90
17421;DHT22;8828;48.800;9.540;2022-12-24T05:39:03;11.00;99.90
17421;DHT22;8828;48.800;9.540;2022-12-24T05:41:40;11.00;99.90
17421;DHT22;8828;48.800;9.540;2022-12-24T05:44:08;11.00;99.90
17421;DHT22;8828;48.800;9.540;2022-12-24T05:46:36;11.00;99.90
17421;DHT22;8828;48.800;9.540;2022-12-24T05:49:06;10.90;99.90
17421;DHT22;8828;48.800;9.540;2022-12-24T05:51:34;10.90;99.90
17421;DHT22;8828;48.800;9.540;2022-12-24T05:54:02;10.90;99.90
17421;DHT22;8828;48.800;9.540;2022-12-24T05:56:30;10.90;99.90
17421;DHT22;8828;48.800;9.540;2022-12-24T05:58:58;10.90;99.90
17421;DHT22;8828;48.800;9.540;2022-12-24T06:01:26;10.90;99.90
17421;DHT22;8828;48.800;9.540;2022-12-24T06:03:55;10.80;99.90
17421;DHT22;8828;48.800;9.540;2022-12-24T06:06:26;10.80;99.90
17421;DHT22;8828;48.800;9.540;2022-12-24T06:08:56;10.70;99.90
17421;DHT22;8828;48.800;9.540;2022-12-24T06:11:26;10.70;99.90
17421;DHT22;8828;48.800;9.540;2022-12-24T06:13:54;10.70;99.90
17421;DHT22;8828;48.800;9.540;2022-12-24T06:16:23;10.70;99.90
17421;DHT22;8828;48.800;9.540;2022-12-24T06:18:51;10.60;99.90
17421;DHT22;8828;48.800;9.540;2022-12-24T06:21:20;10.60;99.90
17421;DHT22;8828;48.800;9.540;2022-12-24T06:23:49;10.60;99.90
17421;DHT22;8828;48.800;9.540;2022-12-24T06:26:19;10.60;99.90
17421;DHT22;8828;48.800;9.540;2022-12-24T06:28:48;10.60;99.90
17421;DHT22;8828;48.800;9.540;2022-12-24T06:31:20;10.50;99.90
17421;DHT22;8828;48.800;9.540;2022-12-24T06:33:48;10.50;99.90
17421;DHT22;8828;48.800;9.540;2022-12-24T06:36:20;10.50;99.90
17421;DHT22;8828;48.800;9.540;2022-12-24T06:38:49;10.50;99.90
17421;DHT22;8828;48.800;9.540;2022-12-24T06:41:18;10.50;99.90
17421;DHT22;8828;48.800;9.540;2022-12-24T06:43:47;10.50;99.90
17421;DHT22;8828;48.800;9.540;2022-12-24T06:46:16;10.40;99.90
17421;DHT22;8828;48.800;9.540;2022-12-24T06:48:44;10.40;99.90
17421;DHT22;8828;48.800;9.540;2022-12-24T06:51:14;10.40;99.90
17421;DHT22;8828;48.800;9.540;2022-12-24T06:53:42;10.40;99.90
17421;DHT22;8828;48.800;9.540;2022-12-24T06:56:12;10.40;99.90
17421;DHT22;8828;48.800;9.540;2022-12-24T06:58:41;10.40;99.90
17421;DHT22;8828;48.800;9.540;2022-12-24T07:01:10;10.50;99.90
17421;DHT22;8828;48.800;9.540;2022-12-24T07:03:39;10.40;99.90
17421;DHT22;8828;48.800;9.540;2022-12-24T07:06:10;10.40;99.90
17421;DHT22;8828;48.800;9.540;2022-12-24T07:08:41;10.40;99.90
17421;DHT22;8828;48.800;9.540;2022-12-24T07:11:11;10.40;99.90
17421;DHT22;8828;48.800;9.540;2022-12-24T07:13:39;10.40;99.90
17421;DHT22;8828;48.800;9.540;2022-12-24T07:16:07;10.40;99.90
17421;DHT22;8828;48.800;9.540;2022-12-24T07:18:35;10.40;99.90
17421;DHT22;8828;48.800;9.540;2022-12-24T07:21:04;10.50;99.90
17421;DHT22;8828;48.800;9.540;2022-12-24T07:23:33;10.40;99.90
17421;DHT22;8828;48.800;9.540;2022-12-24T07:26:02;10.50;99.90
17421;DHT22;8828;48.800;9.540;2022-12-24T07:28:32;10.50;99.90
17421;DHT22;8828;48.800;9.540;2022-12-24T07:31:00;10.50;99.90
17421;DHT22;8828;48.800;9.540;2022-12-24T07:33:28;10.50;99.90
17421;DHT22;8828;48.800;9.540;2022-12-24T07:36:00;10.50;99.90
17421;DHT22;8828;48.800;9.540;2022-12-24T07:38:29;10.60;99.90
17421;DHT22;8828;48.800;9.540;2022-12-24T07:40:57;10.60;99.90
17421;DHT22;8828;48.800;9.540;2022-12-24T07:43:25;10.60;99.90
17421;DHT22;8828;48.800;9.540;2022-12-24T07:45:55;10.60;99.90
17421;DHT22;8828;48.800;9.540;2022-12-24T07:48:24;10.70;99.90
17421;DHT22;8828;48.800;9.540;2022-12-24T07:50:53;10.70;99.90
17421;DHT22;8828;48.800;9.540;2022-12-24T07:53:21;10.70;99.90
17421;DHT22;8828;48.800;9.540;2022-12-24T07:55:49;10.70;99.90
17421;DHT22;8828;48.800;9.540;2022-12-24T07:58:17;10.70;99.90
17421;DHT22;8828;48.800;9.540;2022-12-24T08:00:45;10.70;99.90
17421;DHT22;8828;48.800;9.540;2022-12-24T08:03:17;10.80;99.90
17421;DHT22;8828;48.800;9.540;2022-12-24T08:05:46;10.80;99.90
17421;DHT22;8828;48.800;9.540;2022-12-24T08:08:14;10.80;99.90
17421;DHT22;8828;48.800;9.540;2022-12-24T08:10:44;10.80;99.90
17421;DHT22;8828;48.800;9.540;2022-12-24T08:13:12;10.90;99.90
17421;DHT22;8828;48.800;9.540;2022-12-24T08:15:40;10.90;99.90
17421;DHT22;8828;48.800;9.540;2022-12-24T08:18:08;10.90;99.90
17421;DHT22;8828;48.800;9.540;2022-12-24T08:20:38;10.90;99.90
17421;DHT22;8828;48.800;9.540;2022-12-24T08:23:07;11.00;99.90
17421;DHT22;8828;48.800;9.540;2022-12-24T08:25:36;10.90;99.90
17421;DHT22;8828;48.800;9.540;2022-12-24T08:28:05;11.00;99.90
17421;DHT22;8828;48.800;9.540;2022-12-24T08:30:33;11.00;99.90
17421;DHT22;8828;48.800;9.540;2022-12-24T08:33:01;11.00;99.90
17421;DHT22;8828;48.800;9.540;2022-12-24T08:35:29;11.00;99.90
17421;DHT22;8828;48.800;9.540;2022-12-24T08:37:59;11.10;99.90
17421;DHT22;8828;48.800;9.540;2022-12-24T08:40:27;11.10;99.90
17421;DHT22;8828;48.800;9.540;2022-12-24T08:42:55;11.10;99.90
17421;DHT22;8828;48.800;9.540;2022-12-24T08:45:23;11.10;99.90
17421;DHT22;8828;48.800;9.540;2022-12-24T08:47:51;11.10;99.90
17421;DHT22;8828;48.800;9.540;2022-12-24T08:50:19;11.10;99.90
17421;DHT22;8828;48.800;9.540;2022-12-24T08:52:47;11.10;99.90
17421;DHT22;8828;48.800;9.540;2022-12-24T08:55:16;11.10;99.90
17421;DHT22;8828;48.800;9.540;2022-12-24T08:57:44;11.10;99.90
17421;DHT22;8828;48.800;9.540;2022-12-24T09:00:13;11.10;99.90
17421;DHT22;8828;48.800;9.540;2022-12-24T09:02:41;11.10;99.90
17421;DHT22;8828;48.800;9.540;2022-12-24T09:05:09;11.10;99.90
17421;DHT22;8828;48.800;9.540;2022-12-24T09:07:37;11.10;99.90
17421;DHT22;8828;48.800;9.540;2022-12-24T09:10:06;11.20;99.90
17421;DHT22;8828;48.800;9.540;2022-12-24T09:12:36;11.20;99.90
17421;DHT22;8828;48.800;9.540;2022-12-24T09:15:05;11.20;99.90
17421;DHT22;8828;48.800;9.540;2022-12-24T09:17:34;11.20;99.90
17421;DHT22;8828;48.800;9.540;2022-12-24T09:20:03;11.30;99.90
17421;DHT22;8828;48.800;9.540;2022-12-24T09:22:34;11.30;99.90
17421;DHT22;8828;48.800;9.540;2022-12-24T09:25:03;11.40;99.90
17421;DHT22;8828;48.800;9.540;2022-12-24T09:27:32;11.50;99.90
17421;DHT22;8828;48.800;9.540;2022-12-24T09:30:03;11.50;99.90
17421;DHT22;8828;48.800;9.540;2022-12-24T09:32:32;11.50;99.90
17421;DHT22;8828;48.800;9.540;2022-12-24T09:35:00;11.60;99.90
17421;DHT22;8828;48.800;9.540;2022-12-24T09:37:28;11.60;99.90
17421;DHT22;8828;48.800;9.540;2022-12-24T09:39:56;11.70;99.90
17421;DHT22;8828;48.800;9.540;2022-12-24T09:42:32;11.70;99.90
17421;DHT22;8828;48.800;9.540;2022-12-24T09:45:12;11.80;99.90
17421;DHT22;8828;48.800;9.540;2022-12-24T09:47:46;11.90;99.90
17421;DHT22;8828;48.800;9.540;2022-12-24T09:50:28;12.00;99.90
17421;DHT22;8828;48.800;9.540;2022-12-24T09:52:58;12.10;99.90
17421;DHT22;8828;48.800;9.540;2022-12-24T09:55:31;12.20;99.90
17421;DHT22;8828;48.800;9.540;2022-12-24T09:58:01;12.30;99.90
17421;DHT22;8828;48.800;9.540;2022-12-24T10:00:36;12.40;99.90
17421;DHT22;8828;48.800;9.540;2022-12-24T10:03:13;12.50;99.90
17421;DHT22;8828;48.800;9.540;2022-12-24T10:05:47;12.50;99.90
17421;DHT22;8828;48.800;9.540;2022-12-24T10:08:25;12.60;99.90
17421;DHT22;8828;48.800;9.540;2022-12-24T10:11:01;12.60;99.90
17421;DHT22;8828;48.800;9.540;2022-12-24T10:13:45;12.60;99.90
17421;DHT22;8828;48.800;9.540;2022-12-24T10:16:22;12.60;99.90
17421;DHT22;8828;48.800;9.540;2022-12-24T10:19:05;12.70;99.90
17421;DHT22;8828;48.800;9.540;2022-12-24T10:21:46;12.70;99.90
17421;DHT22;8828;48.800;9.540;2022-12-24T10:24:21;12.70;99.90
17421;DHT22;8828;48.800;9.540;2022-12-24T10:26:54;12.80;99.90
17421;DHT22;8828;48.800;9.540;2022-12-24T10:29:26;12.80;99.90
17421;DHT22;8828;48.800;9.540;2022-12-24T10:32:03;12.80;99.90
17421;DHT22;8828;48.800;9.540;2022-12-24T10:34:40;12.80;99.90
17421;DHT22;8828;48.800;9.540;2022-12-24T10:37:14;12.80;99.90
17421;DHT22;8828;48.800;9.540;2022-12-24T10:39:43;12.90;99.90
17421;DHT22;8828;48.800;9.540;2022-12-24T10:42:12;13.00;99.90
17421;DHT22;8828;48.800;9.540;2022-12-24T10:44:51;13.20;99.90
17421;DHT22;8828;48.800;9.540;2022-12-24T10:47:22;13.20;99.90
17421;DHT22;8828;48.800;9.540;2022-12-24T10:49:56;13.30;99.90
17421;DHT22;8828;48.800;9.540;2022-12-24T10:52:31;13.40;99.90
17421;DHT22;8828;48.800;9.540;2022-12-24T10:55:09;13.40;99.90
17421;DHT22;8828;48.800;9.540;2022-12-24T10:57:38;13.50;99.90
17421;DHT22;8828;48.800;9.540;2022-12-24T11:00:17;13.60;99.90
17421;DHT22;8828;48.800;9.540;2022-12-24T11:02:48;13.60;99.90
17421;DHT22;8828;48.800;9.540;2022-12-24T11:05:28;13.50;99.90
17421;DHT22;8828;48.800;9.540;2022-12-24T11:08:01;13.40;99.90
17421;DHT22;8828;48.800;9.540;2022-12-24T11:10:29;13.30;99.90
17421;DHT22;8828;48.800;9.540;2022-12-24T11:12:58;13.20;99.90
17421;DHT22;8828;48.800;9.540;2022-12-24T11:15:46;13.10;99.90
17421;DHT22;8828;48.800;9.540;2022-12-24T11:18:15;13.00;99.90
17421;DHT22;8828;48.800;9.540;2022-12-24T11:20:48;12.90;99.90
17421;DHT22;8828;48.800;9.540;2022-12-24T11:23:17;12.90;99.90
17421;DHT22;8828;48.800;9.540;2022-12-24T11:25:47;12.90;99.90
17421;DHT22;8828;48.800;9.540;2022-12-24T11:28:20;12.80;99.90
17421;DHT22;8828;48.800;9.540;2022-12-24T11:30:59;12.80;99.90
17421;DHT22;8828;48.800;9.540;2022-12-24T11:33:30;12.70;99.90
17421;DHT22;8828;48.800;9.540;2022-12-24T11:36:03;12.70;99.90
17421;DHT22;8828;48.800;9.540;2022-12-24T11:38:34;12.70;99.90
17421;DHT22;8828;48.800;9.540;2022-12-24T11:41:07;12.70;99.90
17421;DHT22;8828;48.800;9.540;2022-12-24T11:43:40;12.70;99.90
17421;DHT22;8828;48.800;9.540;2022-12-24T11:46:15;12.70;99.90
17421;DHT22;8828;48.800;9.540;2022-12-24T11:48:45;12.70;99.90
17421;DHT22;8828;48.800;9.540;2022-12-24T11:51:26;12.70;99.90
17421;DHT22;8828;48.800;9.540;2022-12-24T11:54:01;12.70;99.90
17421;DHT22;8828;48.800;9.540;2022-12-24T11:56:35;12.60;99.90
17421;DHT22;8828;48.800;9.540;2022-12-24T11:59:11;12.60;99.90
17421;DHT22;8828;48.800;9.540;2022-12-24T12:01:49;12.60;99.90
17421;DHT22;8828;48.800;9.540;2022-12-24T12:04:20;12.70;99.90
17421;DHT22;8828;48.800;9.540;2022-12-24T12:06:51;12.60;99.90
17421;DHT22;8828;48.800;9.540;2022-12-24T12:09:23;12.60;99.90
17421;DHT22;8828;48.800;9.540;2022-12-24T12:11:56;12.60;99.90
17421;DHT22;8828;48.800;9.540;2022-12-24T12:14:28;12.60;99.90
17421;DHT22;8828;48.800;9.540;2022-12-24T12:17:01;12.60;99.90
17421;DHT22;8828;48.800;9.540;2022-12-24T12:19:37;12.60;99.90
17421;DHT22;8828;48.800;9.540;2022-12-24T12:22:12;12.70;99.90
17421;DHT22;8828;48.800;9.540;2022-12-24T12:24:48;12.80;99.90
17421;DHT22;8828;48.800;9.540;2022-12-24T12:27:22;12.90;99.90
17421;DHT22;8828;48.800;9.540;2022-12-24T12:29:56;13.10;99.90
17421;DHT22;8828;48.800;9.540;2022-12-24T12:32:28;13.40;99.90
17421;DHT22;8828;48.800;9.540;2022-12-24T12:35:03;13.60;99.90
17421;DHT22;8828;48.800;9.540;2022-12-24T12:37:35;13.80;99.90
17421;DHT22;8828;48.800;9.540;2022-12-24T12:40:12;14.00;99.90
17421;DHT22;8828;48.800;9.540;2022-12-24T12:42:46;14.20;99.90
17421;DHT22;8828;48.800;9.540;2022-12-24T12:45:29;14.20;99.90
17421;DHT22;8828;48.800;9.540;2022-12-24T12:48:14;14.20;99.90
17421;DHT22;8828;48.800;9.540;2022-12-24T12:50:51;14.20;99.90
17421;DHT22;8828;48.800;9.540;2022-12-24T12:53:35;14.10;99.90
17421;DHT22;8828;48.800;9.540;2022-12-24T12:56:11;14.00;99.90
17421;DHT22;8828;48.800;9.540;2022-12-24T12:58:45;13.90;99.90
17421;DHT22;8828;48.800;9.540;2022-12-24T13:01:19;13.80;99.90
17421;DHT22;8828;48.800;9.540;2022-12-24T13:04:31;13.70;99.90
17421;DHT22;8828;48.800;9.540;2022-12-24T13:10:33;13.50;99.90
17421;DHT22;8828;48.800;9.540;2022-12-24T13:13:19;13.40;99.90
17421;DHT22;8828;48.800;9.540;2022-12-24T13:16:15;13.30;99.90
17421;DHT22;8828;48.800;9.540;2022-12-24T13:18:53;13.20;99.90
17421;DHT22;8828;48.800;9.540;2022-12-24T13:21:26;13.10;99.90
17421;DHT22;8828;48.800;9.540;2022-12-24T13:24:04;13.00;99.90
17421;DHT22;8828;48.800;9.540;2022-12-24T13:26:34;13.00;99.90
17421;DHT22;8828;48.800;9.540;2022-12-24T13:29:38;12.90;99.90
17421;DHT22;8828;48.800;9.540;2022-12-24T13:32:36;12.90;99.90
17421;DHT22;8828;48.800;9.540;2022-12-24T13:35:27;12.80;99.90
17421;DHT22;8828;48.800;9.540;2022-12-24T13:41:37;12.70;99.90
17421;DHT22;8828;48.800;9.540;2022-12-24T13:44:19;12.80;99.90
17421;DHT22;8828;48.800;9.540;2022-12-24T13:46:53;12.80;99.90
17421;DHT22;8828;48.800;9.540;2022-12-24T13:49:30;12.70;99.90
17421;DHT22;8828;48.800;9.540;2022-12-24T13:52:15;12.80;99.90
17421;DHT22;8828;48.800;9.540;2022-12-24T13:54:47;12.80;99.90
17421;DHT22;8828;48.800;9.540;2022-12-24T13:57:28;12.80;99.90
17421;DHT22;8828;48.800;9.540;2022-12-24T14:00:00;12.80;99.90
17421;DHT22;8828;48.800;9.540;2022-12-24T14:02:33;12.80;99.90
17421;DHT22;8828;48.800;9.540;2022-12-24T14:05:04;12.80;99.90
17421;DHT22;8828;48.800;9.540;2022-12-24T14:07:35;12.70;99.90
17421;DHT22;8828;48.800;9.540;2022-12-24T14:10:04;12.70;99.90
17421;DHT22;8828;48.800;9.540;2022-12-24T14:12:47;12.70;99.90
17421;DHT22;8828;48.800;9.540;2022-12-24T14:18:36;12.60;99.90
17421;DHT22;8828;48.800;9.540;2022-12-24T14:21:06;12.60;99.90
17421;DHT22;8828;48.800;9.540;2022-12-24T14:23:46;12.50;99.90
17421;DHT22;8828;48.800;9.540;2022-12-24T14:26:18;12.50;99.90
17421;DHT22;8828;48.800;9.540;2022-12-24T14:28:53;12.50;99.90
17421;DHT22;8828;48.800;9.540;2022-12-24T14:31:21;12.50;99.90
17421;DHT22;8828;48.800;9.540;2022-12-24T14:33:50;12.40;99.90
17421;DHT22;8828;48.800;9.540;2022-12-24T14:36:21;12.40;99.90
17421;DHT22;8828;48.800;9.540;2022-12-24T14:38:50;12.40;99.90
17421;DHT22;8828;48.800;9.540;2022-12-24T14:41:35;12.40;99.90
17421;DHT22;8828;48.800;9.540;2022-12-24T14:44:16;12.30;99.90
17421;DHT22;8828;48.800;9.540;2022-12-24T14:46:49;12.30;99.90
17421;DHT22;8828;48.800;9.540;2022-12-24T14:49:38;12.20;99.90
17421;DHT22;8828;48.800;9.540;2022-12-24T14:52:15;12.10;99.90
17421;DHT22;8828;48.800;9.540;2022-12-24T14:55:29;12.10;99.90
17421;DHT22;8828;48.800;9.540;2022-12-24T14:58:24;12.00;99.90
17421;DHT22;8828;48.800;9.540;2022-12-24T15:00:56;11.90;99.90
17421;DHT22;8828;48.800;9.540;2022-12-24T15:03:26;11.90;99.90
17421;DHT22;8828;48.800;9.540;2022-12-24T15:05:56;11.80;99.90
17421;DHT22;8828;48.800;9.540;2022-12-24T15:08:29;11.80;99.90
17421;DHT22;8828;48.800;9.540;2022-12-24T15:11:03;11.70;99.90
17421;DHT22;8828;48.800;9.540;2022-12-24T15:13:35;11.70;99.90
17421;DHT22;8828;48.800;9.540;2022-12-24T15:16:08;11.60;99.90
17421;DHT22;8828;48.800;9.540;2022-12-24T15:18:40;11.50;99.90
17421;DHT22;8828;48.800;9.540;2022-12-24T15:21:15;11.50;99.90
17421;DHT22;8828;48.800;9.540;2022-12-24T15:23:46;11.40;99.90
17421;DHT22;8828;48.800;9.540;2022-12-24T15:26:21;11.30;99.90
17421;DHT22;8828;48.800;9.540;2022-12-24T15:28:50;11.30;99.90
17421;DHT22;8828;48.800;9.540;2022-12-24T15:31:29;11.20;99.90
17421;DHT22;8828;48.800;9.540;2022-12-24T15:33:58;11.10;99.90
17421;DHT22;8828;48.800;9.540;2022-12-24T15:36:28;11.00;99.90
17421;DHT22;8828;48.800;9.540;2022-12-24T15:39:00;11.00;99.90
17421;DHT22;8828;48.800;9.540;2022-12-24T15:41:35;10.90;99.90
17421;DHT22;8828;48.800;9.540;2022-12-24T15:44:25;10.80;99.90
17421;DHT22;8828;48.800;9.540;2022-12-24T15:46:58;10.80;99.90
17421;DHT22;8828;48.800;9.540;2022-12-24T15:49:27;10.80;99.90
17421;DHT22;8828;48.800;9.540;2022-12-24T15:52:02;10.80;99.90
17421;DHT22;8828;48.800;9.540;2022-12-24T15:54:32;10.80;99.90
17421;DHT22;8828;48.800;9.540;2022-12-24T15:57:12;10.80;99.90
17421;DHT22;8828;48.800;9.540;2022-12-24T15:59:40;10.80;99.90
17421;DHT22;8828;48.800;9.540;2022-12-24T16:02:30;10.70;99.90
17421;DHT22;8828;48.800;9.540;2022-12-24T16:05:36;10.70;99.90
17421;DHT22;8828;48.800;9.540;2022-12-24T16:08:22;10.70;99.90
17421;DHT22;8828;48.800;9.540;2022-12-24T16:10:53;10.70;99.90
17421;DHT22;8828;48.800;9.540;2022-12-24T16:13:34;10.70;99.90
17421;DHT22;8828;48.800;9.540;2022-12-24T16:16:05;10.70;99.90
17421;DHT22;8828;48.800;9.540;2022-12-24T16:18:38;10.70;99.90
17421;DHT22;8828;48.800;9.540;2022-12-24T16:21:07;10.70;99.90
17421;DHT22;8828;48.800;9.540;2022-12-24T16:23:38;10.70;99.90
17421;DHT22;8828;48.800;9.540;2022-12-24T16:26:11;10.70;99.90
17421;DHT22;8828;48.800;9.540;2022-12-24T16:28:39;10.70;99.90
17421;DHT22;8828;48.800;9.540;2022-12-24T16:31:15;10.70;99.90